Time;durP1;ratioP1;P1;durP2;ratioP2;P2;SDS_P1;SDS_P2;PMS_P1;PMS_P2;Temp;Humidity;BMP_temperature;BMP_pressure;BME280_temperature;BME280_humidity;BME280_pressure;Samples;Min_cycle;Max_cycle;Signal;HPM_P1;HPM_P2
2022/07/14 00:01:47;;;;;;;6.07;2.38;;;;;;;;;;6207739;28;20222;-74
2022/07/14 00:05:09;;;;;;;7.15;3.20;;;;;;;;;;6209791;28;20233;-74
2022/07/14 00:08:30;;;;;;;9.00;4.47;;;;;;;;;;6204940;28;20297;-74
2022/07/14 00:11:51;;;;;;;8.57;2.90;;;;;;;;;;6210089;28;20510;-74
2022/07/14 00:15:11;;;;;;;11.23;3.05;;;;;;;;;;6206192;28;20233;-73
2022/07/14 00:18:32;;;;;;;6.95;3.00;;;;;;;;;;6202849;28;20241;-75
2022/07/14 00:21:54;;;;;;;5.20;2.67;;;;;;;;;;6202481;28;20779;-74
2022/07/14 00:25:14;;;;;;;4.55;2.45;;;;;;;;;;6206008;28;20224;-74
2022/07/14 00:28:36;;;;;;;5.13;2.40;;;;;;;;;;6203935;28;20547;-74
2022/07/14 00:31:56;;;;;;;7.95;3.10;;;;;;;;;;6190141;28;20320;-72
2022/07/14 00:35:17;;;;;;;6.20;2.15;;;;;;;;;;6205779;28;20221;-73
2022/07/14 00:38:39;;;;;;;10.18;3.20;;;;;;;;;;6206190;28;20230;-73
2022/07/14 00:41:59;;;;;;;5.45;3.17;;;;;;;;;;6190492;28;20250;-73
2022/07/14 00:45:20;;;;;;;7.82;2.67;;;;;;;;;;6188232;28;20229;-74
2022/07/14 00:48:41;;;;;;;5.15;2.22;;;;;;;;;;6203630;28;20324;-73
2022/07/14 00:52:01;;;;;;;3.28;2.00;;;;;;;;;;6205957;28;20806;-74
2022/07/14 00:55:23;;;;;;;6.03;2.22;;;;;;;;;;6200278;28;20229;-73
2022/07/14 00:58:43;;;;;;;5.07;1.83;;;;;;;;;;6193380;28;20613;-74
2022/07/14 01:02:04;;;;;;;9.65;2.42;;;;;;;;;;6202025;28;20232;-73
2022/07/14 01:05:25;;;;;;;7.88;2.58;;;;;;;;;;6206986;28;20229;-73
2022/07/14 01:08:45;;;;;;;6.95;3.13;;;;;;;;;;6203644;28;20946;-74
2022/07/14 01:12:08;;;;;;;9.23;2.60;;;;;;;;;;6199715;28;20618;-73
2022/07/14 01:15:29;;;;;;;8.15;3.08;;;;;;;;;;6188343;28;20308;-73
2022/07/14 01:18:50;;;;;;;6.00;2.03;;;;;;;;;;6202730;28;20237;-73
2022/07/14 01:22:13;;;;;;;9.38;2.70;;;;;;;;;;6193468;28;20323;-74
2022/07/14 01:25:34;;;;;;;8.93;2.35;;;;;;;;;;6206144;28;20811;-73
2022/07/14 01:28:55;;;;;;;7.38;2.45;;;;;;;;;;6187705;28;20476;-73
2022/07/14 01:32:16;;;;;;;5.07;2.33;;;;;;;;;;6202942;28;20524;-73
2022/07/14 01:35:37;;;;;;;6.72;2.13;;;;;;;;;;6189594;28;20312;-73
2022/07/14 01:38:58;;;;;;;9.32;2.85;;;;;;;;;;6177071;28;20481;-73
2022/07/14 01:42:19;;;;;;;5.53;2.47;;;;;;;;;;6190096;28;20264;-74
2022/07/14 01:45:48;;;;;;;6.65;2.50;;;;;;;;;;6189011;28;22168;-73
2022/07/14 01:49:09;;;;;;;7.15;2.85;;;;;;;;;;6187262;28;20615;-73
2022/07/14 01:52:30;;;;;;;9.85;3.15;;;;;;;;;;6205682;28;20233;-73
2022/07/14 01:55:52;;;;;;;6.78;2.58;;;;;;;;;;6188833;28;20229;-73
2022/07/14 01:59:13;;;;;;;12.85;2.92;;;;;;;;;;6187865;28;20237;-73
2022/07/14 02:02:34;;;;;;;4.72;2.30;;;;;;;;;;6192957;28;20579;-74
2022/07/14 02:05:55;;;;;;;9.07;2.42;;;;;;;;;;6186491;28;20229;-74
2022/07/14 02:09:16;;;;;;;7.28;2.90;;;;;;;;;;6201742;28;20252;-73
2022/07/14 02:12:38;;;;;;;6.03;2.60;;;;;;;;;;6186853;28;20237;-75
2022/07/14 02:16:01;;;;;;;6.68;2.33;;;;;;;;;;6185354;28;20252;-73
2022/07/14 02:19:23;;;;;;;7.68;2.55;;;;;;;;;;6185116;28;20512;-73
2022/07/14 02:22:44;;;;;;;5.10;2.05;;;;;;;;;;6197624;28;20237;-72
2022/07/14 02:26:10;;;;;;;5.85;2.30;;;;;;;;;;6189099;28;20666;-73
2022/07/14 02:29:32;;;;;;;5.45;2.08;;;;;;;;;;6173015;28;20642;-73
2022/07/14 02:32:53;;;;;;;6.65;2.33;;;;;;;;;;6203375;28;20574;-73
2022/07/14 02:36:13;;;;;;;7.95;2.03;;;;;;;;;;6184316;28;20230;-73
2022/07/14 02:39:34;;;;;;;6.97;2.00;;;;;;;;;;6190417;28;20244;-73
2022/07/14 02:42:55;;;;;;;7.90;2.33;;;;;;;;;;6176806;28;20233;-73
2022/07/14 02:46:17;;;;;;;8.02;2.90;;;;;;;;;;6187051;28;20229;-73
2022/07/14 02:49:38;;;;;;;4.65;2.38;;;;;;;;;;6186594;28;20618;-73
2022/07/14 02:52:58;;;;;;;6.07;2.80;;;;;;;;;;6202538;28;20241;-73
2022/07/14 02:56:21;;;;;;;6.97;1.95;;;;;;;;;;6201348;28;20229;-74
2022/07/14 02:59:42;;;;;;;5.95;1.95;;;;;;;;;;6202109;28;20591;-73
2022/07/14 03:03:06;;;;;;;7.38;1.92;;;;;;;;;;6202173;28;20543;-74
2022/07/14 03:06:26;;;;;;;4.03;1.70;;;;;;;;;;6186918;28;20232;-73
2022/07/14 03:09:47;;;;;;;7.18;2.63;;;;;;;;;;6189095;28;20225;-73
2022/07/14 03:13:09;;;;;;;13.10;2.70;;;;;;;;;;6199230;28;20341;-72
2022/07/14 03:16:30;;;;;;;6.50;1.95;;;;;;;;;;6184595;28;20252;-73
2022/07/14 03:19:58;;;;;;;6.13;2.13;;;;;;;;;;6186107;28;20614;-73
2022/07/14 03:23:20;;;;;;;6.38;2.72;;;;;;;;;;6182492;28;20600;-73
2022/07/14 03:26:41;;;;;;;5.32;2.08;;;;;;;;;;6183559;28;20224;-73
2022/07/14 03:30:02;;;;;;;5.50;2.70;;;;;;;;;;6187526;28;20514;-73
2022/07/14 03:33:23;;;;;;;4.47;1.92;;;;;;;;;;6202388;28;20225;-73
2022/07/14 03:36:47;;;;;;;6.65;2.28;;;;;;;;;;6184881;28;20229;-74
2022/07/14 03:40:12;;;;;;;7.38;2.85;;;;;;;;;;6183395;28;20335;-73
2022/07/14 03:43:34;;;;;;;5.90;3.00;;;;;;;;;;6181694;28;20233;-73
2022/07/14 03:46:56;;;;;;;9.80;4.63;;;;;;;;;;6178158;28;20285;-73
2022/07/14 03:50:19;;;;;;;10.80;5.43;;;;;;;;;;6183904;28;20233;-73
2022/07/14 03:53:41;;;;;;;4.35;2.10;;;;;;;;;;6190052;28;20232;-73
2022/07/14 03:57:05;;;;;;;8.38;4.10;;;;;;;;;;6189745;28;20635;-73
2022/07/14 04:00:28;;;;;;;8.80;3.75;;;;;;;;;;6193144;28;20595;-73
2022/07/14 04:03:49;;;;;;;7.00;3.03;;;;;;;;;;6187566;28;20237;-73
2022/07/14 04:07:10;;;;;;;6.88;2.20;;;;;;;;;;6188697;28;20229;-73
2022/07/14 04:10:32;;;;;;;9.65;5.57;;;;;;;;;;6184656;28;20329;-73
2022/07/14 04:13:53;;;;;;;7.85;3.63;;;;;;;;;;6203581;28;20424;-73
2022/07/14 04:17:14;;;;;;;6.18;3.33;;;;;;;;;;6188163;28;20419;-72
2022/07/14 04:20:36;;;;;;;7.40;2.83;;;;;;;;;;6186601;28;20283;-73
2022/07/14 04:23:57;;;;;;;4.68;2.17;;;;;;;;;;6194978;28;21630;-73
2022/07/14 04:27:20;;;;;;;6.75;2.40;;;;;;;;;;6191336;28;20233;-73
2022/07/14 04:30:41;;;;;;;11.52;3.10;;;;;;;;;;6186236;28;20233;-72
2022/07/14 04:34:03;;;;;;;4.22;2.08;;;;;;;;;;6204170;28;20236;-74
2022/07/14 04:37:24;;;;;;;6.90;1.90;;;;;;;;;;6201937;28;20233;-73
2022/07/14 04:40:49;;;;;;;6.10;2.80;;;;;;;;;;6187270;28;20256;-73
2022/07/14 04:44:11;;;;;;;6.38;2.80;;;;;;;;;;6202361;28;20237;-74
2022/07/14 04:47:36;;;;;;;5.95;2.13;;;;;;;;;;6186578;28;20241;-73
2022/07/14 04:54:36;;;;;;;6.97;2.10;;;;;;;;;;6204883;28;20248;-74
2022/07/14 04:58:15;;;;;;;9.32;3.63;;;;;;;;;;6200921;28;20229;-74
2022/07/14 05:01:37;;;;;;;8.30;3.38;;;;;;;;;;6182499;28;20544;-73
2022/07/14 05:04:58;;;;;;;8.63;5.00;;;;;;;;;;6201252;28;20256;-73
2022/07/14 05:08:19;;;;;;;6.82;2.95;;;;;;;;;;6185058;28;20768;-74
2022/07/14 05:11:44;;;;;;;7.53;2.03;;;;;;;;;;6184069;28;20229;-74
2022/07/14 05:15:04;;;;;;;8.02;2.40;;;;;;;;;;6188469;28;20232;-74
2022/07/14 05:18:27;;;;;;;5.03;1.80;;;;;;;;;;6188355;28;20233;-74
2022/07/14 05:21:48;;;;;;;11.20;2.63;;;;;;;;;;6184996;28;20230;-74
2022/07/14 05:25:10;;;;;;;3.22;1.48;;;;;;;;;;6182366;28;20225;-74
2022/07/14 05:28:31;;;;;;;5.90;1.83;;;;;;;;;;6186827;28;20245;-73
2022/07/14 05:31:52;;;;;;;8.40;2.80;;;;;;;;;;6186625;28;20228;-73
2022/07/14 05:35:14;;;;;;;5.75;2.00;;;;;;;;;;6181909;28;21113;-73
2022/07/14 05:38:34;;;;;;;9.93;3.00;;;;;;;;;;6187417;28;20690;-73
2022/07/14 05:41:56;;;;;;;10.15;3.08;;;;;;;;;;6203487;28;20740;-73
2022/07/14 05:45:17;;;;;;;8.48;2.47;;;;;;;;;;6185323;28;20229;-71
2022/07/14 05:48:38;;;;;;;5.72;2.03;;;;;;;;;;6185281;28;20508;-69
2022/07/14 05:52:02;;;;;;;8.40;3.33;;;;;;;;;;6181350;28;20221;-72
2022/07/14 05:55:23;;;;;;;5.57;2.00;;;;;;;;;;6202907;28;20599;-70
2022/07/14 05:58:47;;;;;;;8.75;2.72;;;;;;;;;;6192438;28;20241;-71
2022/07/14 06:02:08;;;;;;;9.18;2.78;;;;;;;;;;6193698;28;20539;-70
2022/07/14 06:05:29;;;;;;;8.25;2.85;;;;;;;;;;6193328;28;20233;-72
2022/07/14 06:08:51;;;;;;;4.80;2.15;;;;;;;;;;6175048;28;20229;-72
2022/07/14 06:12:12;;;;;;;6.85;1.90;;;;;;;;;;6199280;28;20381;-72
2022/07/14 06:15:35;;;;;;;3.40;2.00;;;;;;;;;;6199919;28;20229;-74
2022/07/14 06:18:56;;;;;;;3.88;1.80;;;;;;;;;;6184336;28;20230;-70
2022/07/14 06:22:17;;;;;;;6.32;2.35;;;;;;;;;;6176847;28;20689;-73
2022/07/14 06:25:40;;;;;;;3.28;1.33;;;;;;;;;;6182697;28;20232;-72
2022/07/14 06:29:01;;;;;;;5.18;1.88;;;;;;;;;;6179122;28;21143;-72
2022/07/14 06:32:23;;;;;;;4.03;1.27;;;;;;;;;;6184016;28;20616;-71
2022/07/14 06:35:46;;;;;;;2.95;1.63;;;;;;;;;;6180690;28;20229;-69
2022/07/14 06:39:07;;;;;;;4.82;1.30;;;;;;;;;;6196676;28;20234;-69
2022/07/14 06:42:29;;;;;;;4.00;1.40;;;;;;;;;;6204712;28;20233;-70
2022/07/14 06:46:07;;;;;;;4.10;1.35;;;;;;;;;;6170737;28;20237;-69
2022/07/14 06:49:29;;;;;;;6.07;1.60;;;;;;;;;;6171790;28;20229;-69
2022/07/14 06:52:50;;;;;;;10.73;1.50;;;;;;;;;;6175059;28;20354;-72
2022/07/14 06:56:10;;;;;;;2.72;2.00;;;;;;;;;;6202738;28;20941;-74
2022/07/14 06:59:32;;;;;;;3.25;1.77;;;;;;;;;;6201179;28;20225;-69
2022/07/14 07:02:53;;;;;;;2.08;0.98;;;;;;;;;;6191697;28;20228;-70
2022/07/14 07:09:52;;;;;;;2.92;1.10;;;;;;;;;;6199362;28;20236;-70
2022/07/14 07:13:13;;;;;;;2.47;1.30;;;;;;;;;;6203964;28;20256;-69
2022/07/14 07:16:35;;;;;;;2.42;0.88;;;;;;;;;;6201581;28;20308;-68
2022/07/14 07:19:55;;;;;;;4.75;2.10;;;;;;;;;;6204831;28;20252;-68
2022/07/14 07:23:17;;;;;;;1.52;1.00;;;;;;;;;;6200305;28;21126;-69
2022/07/14 07:26:40;;;;;;;4.25;0.93;;;;;;;;;;6196343;28;20217;-69
2022/07/14 07:30:01;;;;;;;3.72;1.30;;;;;;;;;;6201189;28;20228;-67
2022/07/14 07:33:23;;;;;;;5.95;1.10;;;;;;;;;;6199029;28;20233;-67
2022/07/14 07:36:44;;;;;;;3.67;0.90;;;;;;;;;;6198238;28;20237;-67
2022/07/14 07:40:05;;;;;;;3.65;1.42;;;;;;;;;;6197836;28;20245;-68
2022/07/14 07:43:26;;;;;;;5.07;1.70;;;;;;;;;;6192172;28;20229;-68
2022/07/14 07:46:46;;;;;;;3.35;1.30;;;;;;;;;;6196359;28;20233;-69
2022/07/14 07:50:10;;;;;;;3.53;1.50;;;;;;;;;;6201978;28;20233;-69
2022/07/14 07:53:31;;;;;;;3.97;1.30;;;;;;;;;;6198134;28;20228;-69
2022/07/14 07:56:52;;;;;;;2.25;0.95;;;;;;;;;;6198221;28;20696;-68
2022/07/14 08:00:14;;;;;;;5.30;1.10;;;;;;;;;;6203745;28;20509;-72
2022/07/14 08:03:34;;;;;;;2.58;0.77;;;;;;;;;;6203453;28;20320;-69
2022/07/14 08:06:56;;;;;;;2.17;1.08;;;;;;;;;;6203543;28;20221;-70
2022/07/14 08:10:17;;;;;;;2.33;1.00;;;;;;;;;;6205337;28;20312;-70
2022/07/14 08:13:38;;;;;;;2.53;1.15;;;;;;;;;;6208242;28;20237;-69
2022/07/14 08:16:58;;;;;;;2.70;1.02;;;;;;;;;;6201732;28;20233;-69
2022/07/14 08:20:20;;;;;;;3.80;1.20;;;;;;;;;;6195996;28;20237;-68
2022/07/14 08:23:42;;;;;;;2.80;1.23;;;;;;;;;;6203344;28;20233;-70
2022/07/14 08:27:02;;;;;;;3.17;1.20;;;;;;;;;;6201448;28;21783;-69
2022/07/14 08:30:23;;;;;;;11.38;2.30;;;;;;;;;;6200063;28;20233;-71
2022/07/14 08:33:43;;;;;;;7.07;1.15;;;;;;;;;;6205920;28;20216;-72
2022/07/14 08:37:05;;;;;;;3.70;0.95;;;;;;;;;;6200421;28;20319;-73
2022/07/14 08:40:27;;;;;;;2.28;0.70;;;;;;;;;;6208890;28;20229;-71
2022/07/14 08:43:49;;;;;;;3.15;1.45;;;;;;;;;;6207805;28;20607;-71
2022/07/14 08:47:09;;;;;;;4.78;0.88;;;;;;;;;;6200644;28;20634;-72
2022/07/14 08:50:30;;;;;;;2.88;0.60;;;;;;;;;;6205115;28;20257;-75
2022/07/14 08:53:50;;;;;;;3.17;1.65;;;;;;;;;;6205318;28;20638;-72
2022/07/14 08:57:12;;;;;;;1.95;0.88;;;;;;;;;;6204418;28;20229;-72
2022/07/14 09:00:33;;;;;;;1.88;1.00;;;;;;;;;;6203447;28;20244;-72
2022/07/14 09:03:54;;;;;;;3.35;1.45;;;;;;;;;;6204307;28;20233;-71
2022/07/14 09:07:29;;;;;;;3.03;0.73;;;;;;;;;;6199017;28;20246;-72
2022/07/14 09:10:50;;;;;;;3.75;0.80;;;;;;;;;;6208737;28;20229;-73
2022/07/14 09:14:11;;;;;;;1.55;0.90;;;;;;;;;;6201118;28;20542;-75
2022/07/14 09:17:32;;;;;;;4.35;1.10;;;;;;;;;;6198956;28;20233;-71
2022/07/14 09:20:54;;;;;;;4.70;0.82;;;;;;;;;;6200932;28;20237;-70
2022/07/14 09:24:15;;;;;;;5.75;5.25;;;;;;;;;;6194273;28;20233;-70
2022/07/14 09:27:36;;;;;;;3.95;3.17;;;;;;;;;;6199267;28;20233;-70
2022/07/14 09:31:15;;;;;;;1.55;1.33;;;;;;;;;;6205187;28;20229;-71
2022/07/14 09:34:36;;;;;;;3.03;0.63;;;;;;;;;;6204315;28;20723;-75
2022/07/14 09:37:57;;;;;;;2.13;0.80;;;;;;;;;;6204271;28;20232;-69
2022/07/14 09:41:18;;;;;;;2.03;0.90;;;;;;;;;;6209902;28;20225;-71
2022/07/14 09:44:39;;;;;;;3.08;0.80;;;;;;;;;;6205251;28;20225;-71
2022/07/14 09:48:02;;;;;;;1.52;0.90;;;;;;;;;;6198153;28;20237;-71
2022/07/14 09:51:23;;;;;;;3.22;1.00;;;;;;;;;;6203160;28;20228;-72
2022/07/14 09:54:46;;;;;;;2.28;1.00;;;;;;;;;;6199321;28;20634;-73
2022/07/14 09:58:07;;;;;;;2.55;0.75;;;;;;;;;;6189082;28;20246;-74
2022/07/14 10:01:28;;;;;;;2.80;1.40;;;;;;;;;;6198080;28;20689;-75
2022/07/14 10:04:50;;;;;;;2.78;0.75;;;;;;;;;;6200101;28;20225;-73
2022/07/14 10:08:11;;;;;;;2.17;1.10;;;;;;;;;;6189669;28;20642;-74
2022/07/14 10:11:33;;;;;;;2.35;0.63;;;;;;;;;;6195367;28;20244;-74
2022/07/14 10:14:54;;;;;;;1.08;0.70;;;;;;;;;;6202588;28;20602;-75
2022/07/14 10:18:14;;;;;;;6.90;5.32;;;;;;;;;;6202631;28;20241;-75
2022/07/14 10:21:37;;;;;;;2.85;1.13;;;;;;;;;;6184365;28;20253;-74
2022/07/14 10:24:58;;;;;;;3.28;1.60;;;;;;;;;;6210434;28;20320;-74
2022/07/14 10:28:19;;;;;;;1.45;1.10;;;;;;;;;;6180760;28;20324;-74
2022/07/14 10:31:45;;;;;;;5.35;2.15;;;;;;;;;;6204367;28;20626;-75
2022/07/14 10:35:20;;;;;;;3.50;0.70;;;;;;;;;;6206118;28;20229;-74
2022/07/14 10:38:47;;;;;;;3.42;1.10;;;;;;;;;;6200239;28;20248;-72
2022/07/14 10:42:12;;;;;;;1.48;1.08;;;;;;;;;;6197080;28;20233;-74
2022/07/14 10:45:33;;;;;;;4.93;1.45;;;;;;;;;;6195892;28;20229;-74
2022/07/14 10:48:54;;;;;;;1.80;1.08;;;;;;;;;;6198258;28;20232;-74
2022/07/14 10:52:24;;;;;;;1.63;0.60;;;;;;;;;;6184306;28;20233;-73
2022/07/14 10:55:47;;;;;;;3.88;0.98;;;;;;;;;;6178083;28;20312;-71
2022/07/14 10:59:27;;;;;;;2.88;1.05;;;;;;;;;;6197183;28;20233;-74
2022/07/14 11:02:47;;;;;;;3.53;1.17;;;;;;;;;;6194553;28;20260;-72
2022/07/14 11:06:12;;;;;;;2.97;1.52;;;;;;;;;;6198863;28;20229;-73
2022/07/14 11:09:32;;;;;;;4.68;1.63;;;;;;;;;;6197162;28;20225;-72
2022/07/14 11:13:10;;;;;;;2.20;0.98;;;;;;;;;;6196557;28;20225;-72
2022/07/14 11:16:50;;;;;;;3.83;1.15;;;;;;;;;;6196677;28;20324;-72
2022/07/14 11:20:12;;;;;;;4.05;1.52;;;;;;;;;;6198399;28;20241;-73
2022/07/14 11:23:33;;;;;;;2.55;1.33;;;;;;;;;;6198587;28;20375;-73
2022/07/14 11:26:54;;;;;;;4.90;1.52;;;;;;;;;;6197835;28;20625;-72
2022/07/14 11:30:27;;;;;;;3.58;1.75;;;;;;;;;;6199474;28;20659;-72
2022/07/14 11:37:30;;;;;;;5.53;1.20;;;;;;;;;;6182467;28;20806;-72
2022/07/14 11:40:51;;;;;;;3.05;1.25;;;;;;;;;;6202346;28;20225;-70
2022/07/14 11:44:27;;;;;;;1.10;0.77;;;;;;;;;;6200897;28;20575;-73
2022/07/14 11:47:50;;;;;;;2.78;1.10;;;;;;;;;;6200311;28;20575;-71
2022/07/14 11:51:11;;;;;;;2.95;1.20;;;;;;;;;;6198813;28;20234;-72
2022/07/14 11:54:32;;;;;;;3.70;0.98;;;;;;;;;;6197703;28;20238;-72
2022/07/14 11:57:53;;;;;;;2.25;0.73;;;;;;;;;;6194307;28;20283;-72
2022/07/14 12:01:14;;;;;;;1.90;1.50;;;;;;;;;;6196695;28;21393;-73
2022/07/14 12:04:47;;;;;;;3.53;1.02;;;;;;;;;;6180976;28;21802;-72
2022/07/14 12:08:08;;;;;;;2.15;1.05;;;;;;;;;;6192136;28;20882;-74
2022/07/14 12:11:29;;;;;;;2.78;1.40;;;;;;;;;;6195544;28;20244;-73
2022/07/14 12:14:51;;;;;;;1.70;1.15;;;;;;;;;;6202571;28;20886;-73
2022/07/14 12:18:12;;;;;;;3.65;1.30;;;;;;;;;;6204524;28;20233;-71
2022/07/14 12:21:35;;;;;;;1.98;1.10;;;;;;;;;;6203638;28;20233;-70
2022/07/14 12:24:57;;;;;;;3.15;0.90;;;;;;;;;;6206057;28;20499;-74
2022/07/14 12:28:21;;;;;;;3.08;0.90;;;;;;;;;;6192813;28;20809;-72
2022/07/14 12:31:42;;;;;;;1.38;0.60;;;;;;;;;;6196442;28;20602;-73
2022/07/14 12:35:04;;;;;;;1.35;0.90;;;;;;;;;;6199669;28;20229;-72
2022/07/14 12:38:26;;;;;;;1.92;0.73;;;;;;;;;;6196233;28;20598;-74
2022/07/14 12:41:48;;;;;;;1.63;0.73;;;;;;;;;;6204263;28;20232;-71
2022/07/14 12:45:09;;;;;;;1.58;0.82;;;;;;;;;;6195587;28;20316;-75
2022/07/14 12:48:29;;;;;;;2.20;1.92;;;;;;;;;;6194276;28;20237;-72
2022/07/14 12:51:54;;;;;;;2.47;0.90;;;;;;;;;;6199627;28;20547;-73
2022/07/14 12:58:45;;;;;;;4.25;1.55;;;;;;;;;;6297793;27;20824;-74
2022/07/14 13:02:06;;;;;;;2.92;0.90;;;;;;;;;;6267674;28;20261;-70
2022/07/14 13:05:28;;;;;;;3.00;0.77;;;;;;;;;;6260358;28;20234;-73
2022/07/14 13:08:48;;;;;;;1.42;1.30;;;;;;;;;;6250969;28;20326;-73
2022/07/14 13:12:25;;;;;;;2.33;1.08;;;;;;;;;;6253210;28;20254;-73
2022/07/14 13:15:47;;;;;;;5.13;2.80;;;;;;;;;;6289890;28;20306;-73
2022/07/14 13:19:12;;;;;;;2.88;0.70;;;;;;;;;;6295464;28;20607;-73
2022/07/14 13:22:32;;;;;;;1.85;0.57;;;;;;;;;;6292959;28;20287;-73
2022/07/14 13:25:53;;;;;;;2.10;0.70;;;;;;;;;;6291064;28;20779;-70
2022/07/14 13:29:14;;;;;;;3.67;0.57;;;;;;;;;;6293786;28;20222;-72
2022/07/14 13:32:36;;;;;;;1.88;0.90;;;;;;;;;;6310606;28;20219;-70
2022/07/14 13:35:57;;;;;;;3.85;1.15;;;;;;;;;;6288972;28;20727;-70
2022/07/14 13:39:18;;;;;;;4.53;1.10;;;;;;;;;;6293433;28;20230;-76
2022/07/14 13:42:39;;;;;;;3.13;0.63;;;;;;;;;;6291256;28;20226;-71
2022/07/14 13:46:00;;;;;;;1.52;0.70;;;;;;;;;;6294740;28;20230;-71
2022/07/14 13:49:22;;;;;;;1.65;1.13;;;;;;;;;;6291903;28;20230;-69
2022/07/14 13:52:41;;;;;;;1.67;1.08;;;;;;;;;;6281087;28;20717;-71
2022/07/14 13:56:03;;;;;;;1.23;0.80;;;;;;;;;;6290934;28;20288;-69
2022/07/14 13:59:23;;;;;;;1.35;0.60;;;;;;;;;;6289648;28;21216;-70
2022/07/14 14:06:23;;;;;;;1.27;0.80;;;;;;;;;;6285925;28;20218;-72
2022/07/14 14:09:44;;;;;;;2.28;1.10;;;;;;;;;;6277910;28;20781;-67
2022/07/14 14:13:05;;;;;;;3.90;1.70;;;;;;;;;;6261110;28;20652;-67
2022/07/14 14:16:25;;;;;;;4.50;1.40;;;;;;;;;;6276502;28;20235;-68
2022/07/14 14:19:46;;;;;;;2.10;1.33;;;;;;;;;;6274463;28;20392;-68
2022/07/14 14:23:08;;;;;;;3.47;0.93;;;;;;;;;;6280672;28;20749;-68
2022/07/14 14:26:28;;;;;;;3.38;1.15;;;;;;;;;;6287187;28;20679;-67
2022/07/14 14:29:49;;;;;;;1.70;1.10;;;;;;;;;;6282762;28;20227;-67
2022/07/14 14:33:09;;;;;;;2.15;0.82;;;;;;;;;;6282492;28;20231;-68
2022/07/14 14:36:30;;;;;;;2.38;0.95;;;;;;;;;;6278686;28;20231;-67
2022/07/14 14:39:51;;;;;;;1.17;0.70;;;;;;;;;;6282395;28;20239;-67
2022/07/14 14:43:12;;;;;;;1.67;0.80;;;;;;;;;;6283192;28;20227;-68
2022/07/14 14:46:33;;;;;;;1.15;0.80;;;;;;;;;;6282879;28;20684;-67
2022/07/14 14:49:54;;;;;;;5.32;0.70;;;;;;;;;;6284075;28;20223;-67
2022/07/14 14:53:15;;;;;;;1.63;0.82;;;;;;;;;;6283306;28;20254;-67
2022/07/14 14:56:37;;;;;;;4.47;1.20;;;;;;;;;;6279362;28;20616;-67
2022/07/14 14:59:57;;;;;;;1.23;0.70;;;;;;;;;;6285275;28;20231;-67
2022/07/14 15:03:18;;;;;;;1.40;1.00;;;;;;;;;;6281703;28;20219;-67
2022/07/14 15:06:38;;;;;;;2.22;1.65;;;;;;;;;;6285051;28;20238;-68
2022/07/14 15:09:59;;;;;;;1.35;0.90;;;;;;;;;;6282231;28;20227;-68
2022/07/14 15:13:21;;;;;;;4.60;1.23;;;;;;;;;;6282058;28;20223;-67
2022/07/14 15:16:42;;;;;;;1.80;1.08;;;;;;;;;;6277325;28;20239;-66
2022/07/14 15:20:03;;;;;;;4.05;1.05;;;;;;;;;;6285609;28;20826;-67
2022/07/14 15:23:24;;;;;;;5.28;1.42;;;;;;;;;;6282418;28;20223;-67
2022/07/14 15:26:45;;;;;;;3.67;1.15;;;;;;;;;;6281257;28;20223;-67
2022/07/14 15:30:09;;;;;;;1.50;1.40;;;;;;;;;;6284370;28;20298;-67
2022/07/14 15:33:30;;;;;;;2.45;1.65;;;;;;;;;;6280630;28;20231;-68
2022/07/14 15:36:50;;;;;;;4.28;0.90;;;;;;;;;;6284986;28;20318;-67
2022/07/14 15:43:49;;;;;;;5.10;1.45;;;;;;;;;;6285011;28;20226;-67
2022/07/14 15:47:11;;;;;;;2.95;1.10;;;;;;;;;;6280463;28;20227;-66
2022/07/14 15:50:32;;;;;;;3.35;1.08;;;;;;;;;;6279805;28;20227;-67
2022/07/14 15:53:53;;;;;;;3.88;1.70;;;;;;;;;;6282794;28;20239;-68
2022/07/14 15:57:13;;;;;;;2.50;1.10;;;;;;;;;;6264905;28;20231;-75
2022/07/14 16:00:34;;;;;;;3.30;0.90;;;;;;;;;;6250707;28;20520;-75
2022/07/14 16:03:56;;;;;;;4.80;1.17;;;;;;;;;;6274611;28;20315;-82
2022/07/14 16:07:17;;;;;;;2.35;1.20;;;;;;;;;;6274083;28;20223;-78
2022/07/14 16:10:38;;;;;;;2.28;1.23;;;;;;;;;;6261381;28;20590;-76
2022/07/14 16:13:59;;;;;;;2.22;0.98;;;;;;;;;;6276222;28;20508;-78
2022/07/14 16:17:19;;;;;;;2.45;1.20;;;;;;;;;;6282454;28;20269;-78
2022/07/14 16:20:41;;;;;;;3.78;1.40;;;;;;;;;;6280286;28;20250;-78
2022/07/14 16:24:02;;;;;;;2.47;1.17;;;;;;;;;;6269068;28;20628;-78
2022/07/14 16:27:23;;;;;;;2.75;1.65;;;;;;;;;;6274941;28;20244;-79
2022/07/14 16:30:43;;;;;;;8.20;1.45;;;;;;;;;;6277733;28;20231;-78
2022/07/14 16:34:03;;;;;;;2.63;1.27;;;;;;;;;;6277302;28;20393;-78
2022/07/14 16:37:26;;;;;;;3.20;1.30;;;;;;;;;;6266256;28;20227;-77
2022/07/14 16:40:48;;;;;;;2.38;1.08;;;;;;;;;;6277896;28;20270;-77
2022/07/14 16:44:08;;;;;;;2.25;1.60;;;;;;;;;;6279753;28;20660;-77
2022/07/14 16:47:29;;;;;;;7.72;2.72;;;;;;;;;;6281914;28;20231;-78
2022/07/14 16:50:50;;;;;;;5.65;2.20;;;;;;;;;;6274968;28;20223;-78
2022/07/14 16:54:12;;;;;;;4.70;1.70;;;;;;;;;;6280602;28;20242;-77
2022/07/14 16:57:32;;;;;;;2.95;1.63;;;;;;;;;;6273899;28;20259;-78
2022/07/14 17:00:54;;;;;;;3.50;2.10;;;;;;;;;;6269084;28;20313;-78
2022/07/14 17:04:14;;;;;;;4.63;1.35;;;;;;;;;;6279147;28;20515;-78
2022/07/14 17:07:35;;;;;;;5.00;1.98;;;;;;;;;;6276400;28;20666;-78
2022/07/14 17:10:57;;;;;;;5.75;2.85;;;;;;;;;;6267936;28;20310;-78
2022/07/14 17:14:18;;;;;;;6.72;3.45;;;;;;;;;;6272849;28;20231;-78
2022/07/14 17:17:39;;;;;;;4.63;2.15;;;;;;;;;;6281324;28;20247;-78
2022/07/14 17:20:59;;;;;;;5.05;1.60;;;;;;;;;;6270570;28;20559;-77
2022/07/14 17:24:20;;;;;;;3.03;2.40;;;;;;;;;;6271205;28;20226;-76
2022/07/14 17:27:42;;;;;;;5.30;1.70;;;;;;;;;;6265839;28;20622;-78
2022/07/14 17:31:02;;;;;;;8.90;1.70;;;;;;;;;;6286405;28;20258;-80
2022/07/14 17:34:24;;;;;;;2.95;2.10;;;;;;;;;;6272969;28;20219;-81
2022/07/14 17:37:44;;;;;;;5.75;1.23;;;;;;;;;;6267055;28;20235;-80
2022/07/14 17:41:05;;;;;;;2.25;1.80;;;;;;;;;;6270865;28;20297;-78
2022/07/14 17:44:27;;;;;;;4.00;1.98;;;;;;;;;;6276185;28;20234;-78
2022/07/14 17:47:47;;;;;;;6.65;1.80;;;;;;;;;;6269155;28;20227;-78
2022/07/14 17:54:46;;;;;;;4.00;1.60;;;;;;;;;;6284228;28;20502;-71
2022/07/14 17:58:07;;;;;;;6.45;2.00;;;;;;;;;;6283988;28;20234;-72
2022/07/14 18:01:29;;;;;;;1.58;1.08;;;;;;;;;;6281475;28;20707;-74
2022/07/14 18:04:50;;;;;;;6.10;2.10;;;;;;;;;;6276783;28;20223;-74
2022/07/14 18:08:11;;;;;;;2.95;1.25;;;;;;;;;;6282867;28;20321;-72
2022/07/14 18:11:31;;;;;;;3.95;1.70;;;;;;;;;;6288033;28;20227;-71
2022/07/14 18:14:52;;;;;;;3.20;1.05;;;;;;;;;;6284026;28;20223;-73
2022/07/14 18:18:14;;;;;;;4.43;1.30;;;;;;;;;;6279364;28;20219;-73
2022/07/14 18:21:36;;;;;;;5.82;2.63;;;;;;;;;;6283484;28;20620;-72
2022/07/14 18:24:57;;;;;;;2.42;1.50;;;;;;;;;;6284174;28;20231;-74
2022/07/14 18:28:18;;;;;;;2.95;2.75;;;;;;;;;;6281778;28;20255;-73
2022/07/14 18:31:38;;;;;;;2.47;1.52;;;;;;;;;;6283218;28;20223;-73
2022/07/14 18:35:00;;;;;;;5.35;1.85;;;;;;;;;;6281255;28;20223;-73
2022/07/14 18:38:21;;;;;;;5.65;2.63;;;;;;;;;;6283749;28;20230;-73
2022/07/14 18:41:43;;;;;;;6.57;1.85;;;;;;;;;;6286258;28;20239;-73
2022/07/14 18:48:43;;;;;;;3.47;1.40;;;;;;;;;;6276209;28;20309;-74
2022/07/14 18:52:06;;;;;;;5.07;1.27;;;;;;;;;;6281077;28;20318;-73
2022/07/14 18:55:28;;;;;;;6.07;1.75;;;;;;;;;;6278582;28;20223;-73
2022/07/14 18:58:49;;;;;;;3.03;1.23;;;;;;;;;;6275698;28;20223;-72
2022/07/14 19:02:09;;;;;;;2.35;1.00;;;;;;;;;;6278803;28;20568;-72
2022/07/14 19:05:30;;;;;;;3.88;1.52;;;;;;;;;;6279024;28;20251;-72
2022/07/14 19:08:51;;;;;;;3.97;1.73;;;;;;;;;;6277849;28;20613;-72
2022/07/14 19:12:12;;;;;;;4.30;1.50;;;;;;;;;;6278319;28;20231;-73
2022/07/14 19:15:33;;;;;;;3.63;1.45;;;;;;;;;;6280220;28;20219;-72
2022/07/14 19:18:53;;;;;;;4.78;2.20;;;;;;;;;;6280045;28;20238;-73
2022/07/14 19:22:14;;;;;;;2.20;1.42;;;;;;;;;;6276520;28;20227;-73
2022/07/14 19:25:37;;;;;;;4.45;1.10;;;;;;;;;;6277511;28;20219;-73
2022/07/14 19:28:57;;;;;;;5.63;1.88;;;;;;;;;;6278315;28;20310;-74
2022/07/14 19:32:18;;;;;;;4.57;2.85;;;;;;;;;;6278008;28;20235;-73
2022/07/14 19:35:39;;;;;;;4.38;1.70;;;;;;;;;;6277084;28;20227;-72
2022/07/14 19:38:59;;;;;;;4.00;1.80;;;;;;;;;;6280458;28;20498;-73
2022/07/14 19:42:22;;;;;;;3.45;1.52;;;;;;;;;;6281755;28;20230;-73
2022/07/14 19:45:42;;;;;;;5.32;1.77;;;;;;;;;;6277292;28;21111;-73
2022/07/14 19:49:03;;;;;;;2.90;2.17;;;;;;;;;;6283284;28;20295;-73
2022/07/14 19:52:24;;;;;;;4.65;2.65;;;;;;;;;;6273795;28;20262;-72
2022/07/14 19:55:45;;;;;;;6.45;2.20;;;;;;;;;;6282758;28;20247;-73
2022/07/14 19:59:06;;;;;;;5.13;1.73;;;;;;;;;;6276845;28;20260;-73
2022/07/14 20:02:27;;;;;;;6.35;2.08;;;;;;;;;;6276292;28;20298;-73
2022/07/14 20:05:47;;;;;;;10.27;3.08;;;;;;;;;;6280721;28;20658;-74
2022/07/14 20:09:08;;;;;;;4.65;1.88;;;;;;;;;;6278911;28;20242;-74
2022/07/14 20:12:29;;;;;;;4.22;2.13;;;;;;;;;;6278090;28;20223;-73
2022/07/14 20:15:51;;;;;;;4.83;1.43;;;;;;;;;;6279449;28;20488;-73
2022/07/14 20:19:13;;;;;;;6.00;1.85;;;;;;;;;;6271187;28;20245;-74
2022/07/14 20:22:34;;;;;;;4.25;1.80;;;;;;;;;;6273391;28;20437;-72
2022/07/14 20:25:54;;;;;;;6.38;2.13;;;;;;;;;;6269875;28;20231;-73
2022/07/14 20:32:59;;;;;;;4.25;1.70;;;;;;;;;;6264596;28;20494;-73
2022/07/14 20:36:19;;;;;;;3.70;1.73;;;;;;;;;;6264944;28;20253;-74
2022/07/14 20:39:40;;;;;;;2.67;2.10;;;;;;;;;;6269936;28;20560;-73
2022/07/14 20:43:01;;;;;;;4.05;2.30;;;;;;;;;;6277953;28;20655;-73